sensor_id;sensor_type;location;lat;lon;timestamp;P1;durP1;ratioP1;P2;durP2;ratioP2
69463;SDS011;56665;41.106;16.688;2022-12-22T00:03:22;14.60;;;8.50;;
69463;SDS011;56665;41.106;16.688;2022-12-22T00:06:45;14.85;;;8.25;;
69463;SDS011;56665;41.106;16.688;2022-12-22T00:10:09;13.55;;;7.93;;
69463;SDS011;56665;41.106;16.688;2022-12-22T00:13:31;14.10;;;8.18;;
69463;SDS011;56665;41.106;16.688;2022-12-22T00:16:54;14.68;;;8.15;;
69463;SDS011;56665;41.106;16.688;2022-12-22T00:20:21;13.33;;;8.13;;
69463;SDS011;56665;41.106;16.688;2022-12-22T00:23:45;15.35;;;8.98;;
69463;SDS011;56665;41.106;16.688;2022-12-22T00:27:11;14.02;;;8.60;;
69463;SDS011;56665;41.106;16.688;2022-12-22T00:30:36;14.23;;;8.23;;
69463;SDS011;56665;41.106;16.688;2022-12-22T00:33:58;13.48;;;8.25;;
69463;SDS011;56665;41.106;16.688;2022-12-22T00:37:20;14.70;;;8.73;;
69463;SDS011;56665;41.106;16.688;2022-12-22T00:40:42;12.98;;;7.93;;
69463;SDS011;56665;41.106;16.688;2022-12-22T00:44:04;15.65;;;8.32;;
69463;SDS011;56665;41.106;16.688;2022-12-22T00:47:26;15.73;;;8.68;;
69463;SDS011;56665;41.106;16.688;2022-12-22T00:50:49;15.23;;;9.07;;
69463;SDS011;56665;41.106;16.688;2022-12-22T00:54:12;16.23;;;8.83;;
69463;SDS011;56665;41.106;16.688;2022-12-22T00:57:35;13.85;;;8.18;;
69463;SDS011;56665;41.106;16.688;2022-12-22T01:00:58;14.23;;;8.70;;
69463;SDS011;56665;41.106;16.688;2022-12-22T01:04:21;14.95;;;8.60;;
69463;SDS011;56665;41.106;16.688;2022-12-22T01:07:44;13.30;;;8.05;;
69463;SDS011;56665;41.106;16.688;2022-12-22T01:11:06;13.87;;;8.00;;
69463;SDS011;56665;41.106;16.688;2022-12-22T01:14:29;14.43;;;8.73;;
69463;SDS011;56665;41.106;16.688;2022-12-22T01:17:54;13.75;;;8.35;;
69463;SDS011;56665;41.106;16.688;2022-12-22T01:21:17;16.65;;;8.63;;
69463;SDS011;56665;41.106;16.688;2022-12-22T01:24:42;15.65;;;8.45;;
69463;SDS011;56665;41.106;16.688;2022-12-22T01:28:11;13.97;;;8.10;;
69463;SDS011;56665;41.106;16.688;2022-12-22T01:31:35;15.30;;;8.93;;
69463;SDS011;56665;41.106;16.688;2022-12-22T01:34:58;14.38;;;8.43;;
69463;SDS011;56665;41.106;16.688;2022-12-22T01:38:20;14.35;;;8.57;;
69463;SDS011;56665;41.106;16.688;2022-12-22T01:41:43;15.20;;;8.85;;
69463;SDS011;56665;41.106;16.688;2022-12-22T01:45:39;15.80;;;8.97;;
69463;SDS011;56665;41.106;16.688;2022-12-22T01:48:58;14.38;;;8.65;;
69463;SDS011;56665;41.106;16.688;2022-12-22T01:52:23;14.20;;;8.45;;
69463;SDS011;56665;41.106;16.688;2022-12-22T01:55:49;13.38;;;8.48;;
69463;SDS011;56665;41.106;16.688;2022-12-22T01:59:14;15.40;;;8.98;;
69463;SDS011;56665;41.106;16.688;2022-12-22T02:02:37;13.83;;;8.63;;
69463;SDS011;56665;41.106;16.688;2022-12-22T02:06:04;15.10;;;8.55;;
69463;SDS011;56665;41.106;16.688;2022-12-22T02:13:22;15.82;;;8.77;;
69463;SDS011;56665;41.106;16.688;2022-12-22T02:16:50;13.73;;;8.57;;
69463;SDS011;56665;41.106;16.688;2022-12-22T02:20:46;14.33;;;8.17;;
69463;SDS011;56665;41.106;16.688;2022-12-22T02:28:05;12.68;;;8.20;;
69463;SDS011;56665;41.106;16.688;2022-12-22T02:31:33;12.52;;;8.20;;
69463;SDS011;56665;41.106;16.688;2022-12-22T02:34:58;14.13;;;8.50;;
69463;SDS011;56665;41.106;16.688;2022-12-22T02:38:25;15.57;;;8.63;;
69463;SDS011;56665;41.106;16.688;2022-12-22T02:49:57;15.05;;;8.10;;
69463;SDS011;56665;41.106;16.688;2022-12-22T02:53:44;13.80;;;7.97;;
69463;SDS011;56665;41.106;16.688;2022-12-22T02:57:06;14.67;;;8.13;;
69463;SDS011;56665;41.106;16.688;2022-12-22T03:00:29;15.15;;;8.15;;
69463;SDS011;56665;41.106;16.688;2022-12-22T03:03:51;14.07;;;8.43;;
69463;SDS011;56665;41.106;16.688;2022-12-22T03:07:14;13.98;;;8.40;;
69463;SDS011;56665;41.106;16.688;2022-12-22T03:10:37;13.60;;;8.15;;
69463;SDS011;56665;41.106;16.688;2022-12-22T03:14:00;14.67;;;8.53;;
69463;SDS011;56665;41.106;16.688;2022-12-22T03:17:22;13.48;;;7.68;;
69463;SDS011;56665;41.106;16.688;2022-12-22T03:20:44;13.82;;;8.02;;
69463;SDS011;56665;41.106;16.688;2022-12-22T03:24:06;12.40;;;7.60;;
69463;SDS011;56665;41.106;16.688;2022-12-22T03:27:29;14.82;;;7.50;;
69463;SDS011;56665;41.106;16.688;2022-12-22T03:30:34;12.87;;;8.53;;
69463;SDS011;56665;41.106;16.688;2022-12-22T03:33:41;14.02;;;8.27;;
69463;SDS011;56665;41.106;16.688;2022-12-22T03:36:47;12.55;;;7.78;;
69463;SDS011;56665;41.106;16.688;2022-12-22T03:39:52;13.48;;;7.43;;
69463;SDS011;56665;41.106;16.688;2022-12-22T03:42:55;14.02;;;7.55;;
69463;SDS011;56665;41.106;16.688;2022-12-22T03:46:17;12.00;;;7.13;;
69463;SDS011;56665;41.106;16.688;2022-12-22T03:49:33;11.88;;;6.80;;
69463;SDS011;56665;41.106;16.688;2022-12-22T03:52:38;12.38;;;6.88;;
69463;SDS011;56665;41.106;16.688;2022-12-22T03:55:43;11.60;;;7.07;;
69463;SDS011;56665;41.106;16.688;2022-12-22T03:58:46;11.45;;;6.72;;
69463;SDS011;56665;41.106;16.688;2022-12-22T04:01:51;10.43;;;6.90;;
69463;SDS011;56665;41.106;16.688;2022-12-22T04:04:58;11.70;;;6.88;;
69463;SDS011;56665;41.106;16.688;2022-12-22T04:08:01;11.25;;;6.68;;
69463;SDS011;56665;41.106;16.688;2022-12-22T04:11:08;11.85;;;7.00;;
69463;SDS011;56665;41.106;16.688;2022-12-22T04:14:31;11.52;;;6.90;;
69463;SDS011;56665;41.106;16.688;2022-12-22T04:17:35;11.03;;;6.77;;
69463;SDS011;56665;41.106;16.688;2022-12-22T04:20:39;11.73;;;7.35;;
69463;SDS011;56665;41.106;16.688;2022-12-22T04:23:43;11.50;;;7.35;;
69463;SDS011;56665;41.106;16.688;2022-12-22T04:26:47;13.45;;;6.93;;
69463;SDS011;56665;41.106;16.688;2022-12-22T04:29:53;10.93;;;7.32;;
69463;SDS011;56665;41.106;16.688;2022-12-22T04:32:56;11.87;;;7.00;;
69463;SDS011;56665;41.106;16.688;2022-12-22T04:36:00;11.43;;;6.70;;
69463;SDS011;56665;41.106;16.688;2022-12-22T04:39:04;11.27;;;7.30;;
69463;SDS011;56665;41.106;16.688;2022-12-22T04:42:09;12.45;;;7.80;;
69463;SDS011;56665;41.106;16.688;2022-12-22T04:45:13;14.05;;;7.93;;
69463;SDS011;56665;41.106;16.688;2022-12-22T04:48:18;13.27;;;8.07;;
69463;SDS011;56665;41.106;16.688;2022-12-22T04:51:23;14.05;;;8.30;;
69463;SDS011;56665;41.106;16.688;2022-12-22T04:54:26;14.98;;;8.30;;
69463;SDS011;56665;41.106;16.688;2022-12-22T04:57:31;12.98;;;7.65;;
69463;SDS011;56665;41.106;16.688;2022-12-22T05:00:35;13.20;;;7.45;;
69463;SDS011;56665;41.106;16.688;2022-12-22T05:03:39;13.73;;;7.83;;
69463;SDS011;56665;41.106;16.688;2022-12-22T05:06:43;12.00;;;7.32;;
69463;SDS011;56665;41.106;16.688;2022-12-22T05:09:48;12.75;;;7.65;;
69463;SDS011;56665;41.106;16.688;2022-12-22T05:12:52;12.20;;;7.40;;
69463;SDS011;56665;41.106;16.688;2022-12-22T05:16:06;13.27;;;7.53;;
69463;SDS011;56665;41.106;16.688;2022-12-22T05:19:11;13.93;;;7.90;;
69463;SDS011;56665;41.106;16.688;2022-12-22T05:22:15;13.23;;;7.88;;
69463;SDS011;56665;41.106;16.688;2022-12-22T05:25:19;13.13;;;8.32;;
69463;SDS011;56665;41.106;16.688;2022-12-22T05:28:23;13.15;;;8.00;;
69463;SDS011;56665;41.106;16.688;2022-12-22T05:31:27;13.80;;;7.97;;
69463;SDS011;56665;41.106;16.688;2022-12-22T05:34:32;14.13;;;7.73;;
69463;SDS011;56665;41.106;16.688;2022-12-22T05:37:36;12.57;;;7.80;;
69463;SDS011;56665;41.106;16.688;2022-12-22T05:40:39;14.50;;;8.13;;
69463;SDS011;56665;41.106;16.688;2022-12-22T05:43:44;14.13;;;8.25;;
69463;SDS011;56665;41.106;16.688;2022-12-22T05:46:50;15.80;;;8.70;;
69463;SDS011;56665;41.106;16.688;2022-12-22T05:49:54;17.70;;;9.40;;
69463;SDS011;56665;41.106;16.688;2022-12-22T05:52:58;19.05;;;9.40;;
69463;SDS011;56665;41.106;16.688;2022-12-22T05:56:05;27.52;;;13.52;;
69463;SDS011;56665;41.106;16.688;2022-12-22T05:59:09;47.83;;;20.75;;
69463;SDS011;56665;41.106;16.688;2022-12-22T06:02:13;44.80;;;19.92;;
69463;SDS011;56665;41.106;16.688;2022-12-22T06:05:18;45.77;;;21.67;;
69463;SDS011;56665;41.106;16.688;2022-12-22T06:08:22;41.60;;;19.58;;
69463;SDS011;56665;41.106;16.688;2022-12-22T06:11:26;44.28;;;20.92;;
69463;SDS011;56665;41.106;16.688;2022-12-22T06:14:30;44.30;;;20.67;;
69463;SDS011;56665;41.106;16.688;2022-12-22T06:17:35;43.30;;;22.27;;
69463;SDS011;56665;41.106;16.688;2022-12-22T06:20:39;45.80;;;22.83;;
69463;SDS011;56665;41.106;16.688;2022-12-22T06:23:43;45.67;;;22.88;;
69463;SDS011;56665;41.106;16.688;2022-12-22T06:26:48;46.00;;;23.02;;
69463;SDS011;56665;41.106;16.688;2022-12-22T06:29:51;46.13;;;24.00;;
69463;SDS011;56665;41.106;16.688;2022-12-22T06:32:56;52.38;;;26.85;;
69463;SDS011;56665;41.106;16.688;2022-12-22T06:36:07;50.03;;;26.10;;
69463;SDS011;56665;41.106;16.688;2022-12-22T06:39:12;43.97;;;23.35;;
69463;SDS011;56665;41.106;16.688;2022-12-22T06:42:17;48.25;;;23.58;;
69463;SDS011;56665;41.106;16.688;2022-12-22T06:45:41;45.30;;;22.77;;
69463;SDS011;56665;41.106;16.688;2022-12-22T06:48:45;42.08;;;22.35;;
69463;SDS011;56665;41.106;16.688;2022-12-22T06:51:49;41.07;;;21.97;;
69463;SDS011;56665;41.106;16.688;2022-12-22T06:54:55;44.10;;;23.52;;
69463;SDS011;56665;41.106;16.688;2022-12-22T06:57:59;39.45;;;21.67;;
69463;SDS011;56665;41.106;16.688;2022-12-22T07:01:05;39.90;;;21.95;;
69463;SDS011;56665;41.106;16.688;2022-12-22T07:04:12;44.22;;;23.02;;
69463;SDS011;56665;41.106;16.688;2022-12-22T07:07:22;50.73;;;26.30;;
69463;SDS011;56665;41.106;16.688;2022-12-22T07:10:26;50.08;;;28.02;;
69463;SDS011;56665;41.106;16.688;2022-12-22T07:13:48;50.70;;;27.52;;
69463;SDS011;56665;41.106;16.688;2022-12-22T07:16:52;45.38;;;25.40;;
69463;SDS011;56665;41.106;16.688;2022-12-22T07:19:57;49.15;;;26.48;;
69463;SDS011;56665;41.106;16.688;2022-12-22T07:23:02;53.83;;;27.90;;
69463;SDS011;56665;41.106;16.688;2022-12-22T07:26:06;46.15;;;26.02;;
69463;SDS011;56665;41.106;16.688;2022-12-22T07:29:11;46.90;;;26.25;;
69463;SDS011;56665;41.106;16.688;2022-12-22T07:32:15;45.05;;;24.27;;
69463;SDS011;56665;41.106;16.688;2022-12-22T07:35:21;44.60;;;25.15;;
69463;SDS011;56665;41.106;16.688;2022-12-22T07:38:25;48.80;;;28.00;;
69463;SDS011;56665;41.106;16.688;2022-12-22T07:41:30;53.67;;;31.02;;
69463;SDS011;56665;41.106;16.688;2022-12-22T07:44:53;54.95;;;32.03;;
69463;SDS011;56665;41.106;16.688;2022-12-22T07:48:01;53.40;;;32.15;;
69463;SDS011;56665;41.106;16.688;2022-12-22T07:51:33;51.83;;;30.10;;
69463;SDS011;56665;41.106;16.688;2022-12-22T07:54:38;46.10;;;27.30;;
69463;SDS011;56665;41.106;16.688;2022-12-22T07:57:42;43.78;;;27.30;;
69463;SDS011;56665;41.106;16.688;2022-12-22T08:00:46;45.55;;;26.80;;
69463;SDS011;56665;41.106;16.688;2022-12-22T08:03:51;44.15;;;25.90;;
69463;SDS011;56665;41.106;16.688;2022-12-22T08:06:56;45.40;;;27.13;;
69463;SDS011;56665;41.106;16.688;2022-12-22T08:10:00;43.60;;;25.50;;
69463;SDS011;56665;41.106;16.688;2022-12-22T08:13:04;46.58;;;28.17;;
69463;SDS011;56665;41.106;16.688;2022-12-22T08:16:08;45.47;;;27.23;;
69463;SDS011;56665;41.106;16.688;2022-12-22T08:19:14;43.47;;;25.80;;
69463;SDS011;56665;41.106;16.688;2022-12-22T08:22:18;41.17;;;25.70;;
69463;SDS011;56665;41.106;16.688;2022-12-22T08:25:21;36.17;;;23.23;;
69463;SDS011;56665;41.106;16.688;2022-12-22T08:28:25;36.72;;;21.55;;
69463;SDS011;56665;41.106;16.688;2022-12-22T08:31:30;36.55;;;21.48;;
69463;SDS011;56665;41.106;16.688;2022-12-22T08:34:34;36.58;;;19.63;;
69463;SDS011;56665;41.106;16.688;2022-12-22T08:37:38;29.45;;;18.00;;
69463;SDS011;56665;41.106;16.688;2022-12-22T08:40:44;30.77;;;18.47;;
69463;SDS011;56665;41.106;16.688;2022-12-22T08:43:53;26.67;;;16.17;;
69463;SDS011;56665;41.106;16.688;2022-12-22T08:46:57;24.38;;;15.88;;
69463;SDS011;56665;41.106;16.688;2022-12-22T08:50:02;24.98;;;15.75;;
69463;SDS011;56665;41.106;16.688;2022-12-22T08:53:07;24.23;;;15.45;;
69463;SDS011;56665;41.106;16.688;2022-12-22T08:56:11;22.90;;;14.40;;
69463;SDS011;56665;41.106;16.688;2022-12-22T08:59:16;24.17;;;14.52;;
69463;SDS011;56665;41.106;16.688;2022-12-22T09:02:20;26.05;;;15.60;;
69463;SDS011;56665;41.106;16.688;2022-12-22T09:05:25;23.52;;;15.05;;
69463;SDS011;56665;41.106;16.688;2022-12-22T09:08:28;22.92;;;13.90;;
69463;SDS011;56665;41.106;16.688;2022-12-22T09:11:32;23.63;;;14.83;;
69463;SDS011;56665;41.106;16.688;2022-12-22T09:14:36;21.60;;;14.40;;
69463;SDS011;56665;41.106;16.688;2022-12-22T09:17:40;19.83;;;13.73;;
69463;SDS011;56665;41.106;16.688;2022-12-22T09:20:45;19.30;;;14.10;;
69463;SDS011;56665;41.106;16.688;2022-12-22T09:23:51;21.65;;;14.82;;
69463;SDS011;56665;41.106;16.688;2022-12-22T09:26:56;18.70;;;13.10;;
69463;SDS011;56665;41.106;16.688;2022-12-22T09:29:59;18.88;;;13.18;;
69463;SDS011;56665;41.106;16.688;2022-12-22T09:33:03;17.23;;;11.75;;
69463;SDS011;56665;41.106;16.688;2022-12-22T09:36:08;17.75;;;11.65;;
69463;SDS011;56665;41.106;16.688;2022-12-22T09:39:15;18.58;;;12.73;;
69463;SDS011;56665;41.106;16.688;2022-12-22T09:42:19;18.25;;;12.98;;
69463;SDS011;56665;41.106;16.688;2022-12-22T09:45:23;18.05;;;12.63;;
69463;SDS011;56665;41.106;16.688;2022-12-22T09:48:31;15.60;;;11.82;;
69463;SDS011;56665;41.106;16.688;2022-12-22T09:51:39;16.30;;;11.65;;
69463;SDS011;56665;41.106;16.688;2022-12-22T09:54:46;16.10;;;11.45;;
69463;SDS011;56665;41.106;16.688;2022-12-22T09:57:50;16.37;;;10.87;;
69463;SDS011;56665;41.106;16.688;2022-12-22T10:07:39;14.63;;;8.85;;
69463;SDS011;56665;41.106;16.688;2022-12-22T10:10:45;14.50;;;8.05;;
69463;SDS011;56665;41.106;16.688;2022-12-22T10:13:48;14.40;;;8.97;;
69463;SDS011;56665;41.106;16.688;2022-12-22T10:20:27;10.48;;;7.50;;
69463;SDS011;56665;41.106;16.688;2022-12-22T10:23:40;10.88;;;7.13;;
69463;SDS011;56665;41.106;16.688;2022-12-22T10:26:47;12.00;;;7.45;;
69463;SDS011;56665;41.106;16.688;2022-12-22T10:33:21;9.50;;;6.43;;
69463;SDS011;56665;41.106;16.688;2022-12-22T10:36:29;10.70;;;6.78;;
69463;SDS011;56665;41.106;16.688;2022-12-22T10:39:34;13.50;;;7.38;;
69463;SDS011;56665;41.106;16.688;2022-12-22T10:42:44;11.77;;;7.93;;
69463;SDS011;56665;41.106;16.688;2022-12-22T10:45:50;17.30;;;9.43;;
69463;SDS011;56665;41.106;16.688;2022-12-22T10:49:07;13.50;;;8.55;;
69463;SDS011;56665;41.106;16.688;2022-12-22T10:52:23;12.88;;;7.82;;
69463;SDS011;56665;41.106;16.688;2022-12-22T10:55:30;12.48;;;7.72;;
69463;SDS011;56665;41.106;16.688;2022-12-22T10:58:47;12.80;;;7.75;;
69463;SDS011;56665;41.106;16.688;2022-12-22T11:02:18;11.40;;;7.33;;
69463;SDS011;56665;41.106;16.688;2022-12-22T11:05:26;13.25;;;8.35;;
69463;SDS011;56665;41.106;16.688;2022-12-22T11:08:30;14.65;;;8.75;;
69463;SDS011;56665;41.106;16.688;2022-12-22T11:12:10;13.30;;;8.18;;
69463;SDS011;56665;41.106;16.688;2022-12-22T11:15:16;12.80;;;7.85;;
69463;SDS011;56665;41.106;16.688;2022-12-22T11:25:52;15.00;;;8.60;;
69463;SDS011;56665;41.106;16.688;2022-12-22T11:29:14;13.02;;;8.90;;
69463;SDS011;56665;41.106;16.688;2022-12-22T11:36:08;14.27;;;9.20;;
69463;SDS011;56665;41.106;16.688;2022-12-22T11:39:41;14.50;;;9.40;;
69463;SDS011;56665;41.106;16.688;2022-12-22T11:46:24;10.55;;;6.80;;
69463;SDS011;56665;41.106;16.688;2022-12-22T11:59:45;13.32;;;8.40;;
69463;SDS011;56665;41.106;16.688;2022-12-22T12:03:12;13.55;;;7.55;;
69463;SDS011;56665;41.106;16.688;2022-12-22T12:10:28;11.87;;;7.90;;
69463;SDS011;56665;41.106;16.688;2022-12-22T12:13:46;11.90;;;8.00;;
69463;SDS011;56665;41.106;16.688;2022-12-22T12:17:07;11.57;;;7.65;;
69463;SDS011;56665;41.106;16.688;2022-12-22T12:30:43;12.35;;;8.50;;
69463;SDS011;56665;41.106;16.688;2022-12-22T12:33:54;13.80;;;8.70;;
69463;SDS011;56665;41.106;16.688;2022-12-22T12:37:12;11.50;;;8.10;;
69463;SDS011;56665;41.106;16.688;2022-12-22T12:40:52;14.80;;;9.60;;
69463;SDS011;56665;41.106;16.688;2022-12-22T12:44:05;12.40;;;8.80;;
69463;SDS011;56665;41.106;16.688;2022-12-22T12:47:26;13.38;;;9.68;;
69463;SDS011;56665;41.106;16.688;2022-12-22T12:50:32;14.23;;;8.93;;
69463;SDS011;56665;41.106;16.688;2022-12-22T12:53:37;11.95;;;7.88;;
69463;SDS011;56665;41.106;16.688;2022-12-22T13:00:55;13.00;;;8.93;;
69463;SDS011;56665;41.106;16.688;2022-12-22T13:04:01;13.88;;;9.23;;
69463;SDS011;56665;41.106;16.688;2022-12-22T13:07:05;15.18;;;9.63;;
69463;SDS011;56665;41.106;16.688;2022-12-22T13:10:20;21.58;;;10.27;;
69463;SDS011;56665;41.106;16.688;2022-12-22T13:16:30;14.13;;;9.20;;
69463;SDS011;56665;41.106;16.688;2022-12-22T13:19:37;16.40;;;10.00;;
69463;SDS011;56665;41.106;16.688;2022-12-22T13:22:43;19.70;;;12.68;;
69463;SDS011;56665;41.106;16.688;2022-12-22T13:26:31;23.77;;;14.02;;
69463;SDS011;56665;41.106;16.688;2022-12-22T13:32:25;17.33;;;9.60;;
69463;SDS011;56665;41.106;16.688;2022-12-22T13:35:37;15.68;;;9.60;;
69463;SDS011;56665;41.106;16.688;2022-12-22T13:38:43;17.50;;;10.57;;
69463;SDS011;56665;41.106;16.688;2022-12-22T13:41:47;40.40;;;26.13;;
69463;SDS011;56665;41.106;16.688;2022-12-22T13:44:52;28.17;;;19.73;;
69463;SDS011;56665;41.106;16.688;2022-12-22T13:47:57;19.70;;;11.50;;
69463;SDS011;56665;41.106;16.688;2022-12-22T13:51:03;23.52;;;13.73;;
69463;SDS011;56665;41.106;16.688;2022-12-22T13:57:32;32.20;;;15.98;;
69463;SDS011;56665;41.106;16.688;2022-12-22T14:00:38;35.45;;;14.82;;
69463;SDS011;56665;41.106;16.688;2022-12-22T14:03:50;21.90;;;11.23;;
69463;SDS011;56665;41.106;16.688;2022-12-22T14:06:56;40.13;;;12.15;;
69463;SDS011;56665;41.106;16.688;2022-12-22T14:10:01;21.92;;;9.88;;
69463;SDS011;56665;41.106;16.688;2022-12-22T14:13:13;22.25;;;8.30;;
69463;SDS011;56665;41.106;16.688;2022-12-22T14:16:24;16.67;;;8.45;;
69463;SDS011;56665;41.106;16.688;2022-12-22T14:19:33;12.67;;;7.07;;
69463;SDS011;56665;41.106;16.688;2022-12-22T14:22:40;16.08;;;8.45;;
69463;SDS011;56665;41.106;16.688;2022-12-22T14:25:54;14.38;;;8.63;;
69463;SDS011;56665;41.106;16.688;2022-12-22T14:28:59;13.00;;;8.32;;
69463;SDS011;56665;41.106;16.688;2022-12-22T14:32:03;14.02;;;8.60;;
69463;SDS011;56665;41.106;16.688;2022-12-22T14:38:24;13.23;;;9.60;;
69463;SDS011;56665;41.106;16.688;2022-12-22T14:41:32;16.70;;;9.98;;
69463;SDS011;56665;41.106;16.688;2022-12-22T14:44:46;15.48;;;9.80;;
69463;SDS011;56665;41.106;16.688;2022-12-22T14:47:51;17.60;;;10.60;;
69463;SDS011;56665;41.106;16.688;2022-12-22T14:50:57;16.47;;;9.63;;
69463;SDS011;56665;41.106;16.688;2022-12-22T14:54:01;17.70;;;11.00;;
69463;SDS011;56665;41.106;16.688;2022-12-22T14:57:09;16.98;;;10.02;;
69463;SDS011;56665;41.106;16.688;2022-12-22T15:03:32;13.82;;;9.15;;
69463;SDS011;56665;41.106;16.688;2022-12-22T15:06:38;16.47;;;9.10;;
69463;SDS011;56665;41.106;16.688;2022-12-22T15:09:43;18.75;;;12.30;;
69463;SDS011;56665;41.106;16.688;2022-12-22T15:12:47;20.10;;;12.73;;
69463;SDS011;56665;41.106;16.688;2022-12-22T15:15:52;19.10;;;12.55;;
69463;SDS011;56665;41.106;16.688;2022-12-22T15:18:58;19.17;;;12.38;;
69463;SDS011;56665;41.106;16.688;2022-12-22T15:22:05;16.90;;;12.10;;
69463;SDS011;56665;41.106;16.688;2022-12-22T15:25:17;18.40;;;11.68;;
69463;SDS011;56665;41.106;16.688;2022-12-22T15:28:22;19.02;;;13.15;;
69463;SDS011;56665;41.106;16.688;2022-12-22T15:31:26;17.77;;;11.70;;
69463;SDS011;56665;41.106;16.688;2022-12-22T15:34:30;19.80;;;12.80;;
69463;SDS011;56665;41.106;16.688;2022-12-22T15:37:34;22.10;;;12.90;;
69463;SDS011;56665;41.106;16.688;2022-12-22T15:40:38;23.75;;;14.30;;
69463;SDS011;56665;41.106;16.688;2022-12-22T15:43:43;33.35;;;19.25;;
69463;SDS011;56665;41.106;16.688;2022-12-22T15:46:51;36.03;;;17.52;;
69463;SDS011;56665;41.106;16.688;2022-12-22T15:49:57;27.38;;;16.00;;
69463;SDS011;56665;41.106;16.688;2022-12-22T15:53:05;33.42;;;18.80;;
69463;SDS011;56665;41.106;16.688;2022-12-22T15:56:14;29.02;;;17.65;;
69463;SDS011;56665;41.106;16.688;2022-12-22T15:59:23;28.88;;;18.05;;
69463;SDS011;56665;41.106;16.688;2022-12-22T16:02:29;36.30;;;20.40;;
69463;SDS011;56665;41.106;16.688;2022-12-22T16:05:33;34.85;;;19.58;;
69463;SDS011;56665;41.106;16.688;2022-12-22T16:08:37;41.57;;;23.10;;
69463;SDS011;56665;41.106;16.688;2022-12-22T16:11:43;43.40;;;24.53;;
69463;SDS011;56665;41.106;16.688;2022-12-22T16:14:48;48.35;;;24.85;;
69463;SDS011;56665;41.106;16.688;2022-12-22T16:17:55;71.78;;;38.08;;
69463;SDS011;56665;41.106;16.688;2022-12-22T16:21:02;125.30;;;77.13;;
69463;SDS011;56665;41.106;16.688;2022-12-22T16:24:18;70.25;;;40.75;;
69463;SDS011;56665;41.106;16.688;2022-12-22T16:27:33;68.13;;;39.70;;
69463;SDS011;56665;41.106;16.688;2022-12-22T16:30:37;59.92;;;31.20;;
69463;SDS011;56665;41.106;16.688;2022-12-22T16:33:41;55.42;;;26.63;;
69463;SDS011;56665;41.106;16.688;2022-12-22T16:36:49;89.95;;;38.85;;
69463;SDS011;56665;41.106;16.688;2022-12-22T16:39:53;93.93;;;39.80;;
69463;SDS011;56665;41.106;16.688;2022-12-22T16:43:06;92.97;;;45.47;;
69463;SDS011;56665;41.106;16.688;2022-12-22T16:46:18;77.75;;;41.90;;
69463;SDS011;56665;41.106;16.688;2022-12-22T16:49:24;86.20;;;46.30;;
69463;SDS011;56665;41.106;16.688;2022-12-22T16:52:29;71.82;;;38.00;;
69463;SDS011;56665;41.106;16.688;2022-12-22T16:55:40;67.50;;;34.40;;
69463;SDS011;56665;41.106;16.688;2022-12-22T16:58:44;57.70;;;33.00;;
69463;SDS011;56665;41.106;16.688;2022-12-22T17:01:51;48.17;;;24.73;;
69463;SDS011;56665;41.106;16.688;2022-12-22T17:05:01;43.78;;;21.85;;
69463;SDS011;56665;41.106;16.688;2022-12-22T17:08:06;50.65;;;24.05;;
69463;SDS011;56665;41.106;16.688;2022-12-22T17:11:16;43.13;;;20.98;;
69463;SDS011;56665;41.106;16.688;2022-12-22T17:14:32;41.27;;;19.83;;
69463;SDS011;56665;41.106;16.688;2022-12-22T17:17:39;39.22;;;20.05;;
69463;SDS011;56665;41.106;16.688;2022-12-22T17:20:44;38.08;;;22.23;;
69463;SDS011;56665;41.106;16.688;2022-12-22T17:23:51;47.47;;;24.38;;
69463;SDS011;56665;41.106;16.688;2022-12-22T17:26:58;48.88;;;24.08;;
69463;SDS011;56665;41.106;16.688;2022-12-22T17:30:12;55.43;;;24.33;;
69463;SDS011;56665;41.106;16.688;2022-12-22T17:33:22;71.35;;;30.08;;
69463;SDS011;56665;41.106;16.688;2022-12-22T17:36:27;95.43;;;37.28;;
69463;SDS011;56665;41.106;16.688;2022-12-22T17:39:35;124.13;;;48.13;;
69463;SDS011;56665;41.106;16.688;2022-12-22T17:42:42;117.32;;;49.22;;
69463;SDS011;56665;41.106;16.688;2022-12-22T17:45:46;124.53;;;56.07;;
69463;SDS011;56665;41.106;16.688;2022-12-22T17:48:51;134.82;;;57.42;;
69463;SDS011;56665;41.106;16.688;2022-12-22T17:51:55;140.20;;;54.42;;
69463;SDS011;56665;41.106;16.688;2022-12-22T17:55:00;166.50;;;59.17;;
69463;SDS011;56665;41.106;16.688;2022-12-22T17:58:12;220.40;;;73.60;;
69463;SDS011;56665;41.106;16.688;2022-12-22T18:01:28;218.68;;;76.43;;
69463;SDS011;56665;41.106;16.688;2022-12-22T18:04:39;206.35;;;70.38;;
69463;SDS011;56665;41.106;16.688;2022-12-22T18:07:43;181.70;;;63.38;;
69463;SDS011;56665;41.106;16.688;2022-12-22T18:10:47;189.25;;;63.25;;
69463;SDS011;56665;41.106;16.688;2022-12-22T18:13:52;189.95;;;64.05;;
69463;SDS011;56665;41.106;16.688;2022-12-22T18:16:56;209.57;;;76.85;;
69463;SDS011;56665;41.106;16.688;2022-12-22T18:20:00;172.63;;;62.27;;
69463;SDS011;56665;41.106;16.688;2022-12-22T18:23:08;182.82;;;69.25;;
69463;SDS011;56665;41.106;16.688;2022-12-22T18:26:20;196.13;;;70.15;;
69463;SDS011;56665;41.106;16.688;2022-12-22T18:29:31;189.20;;;71.65;;
69463;SDS011;56665;41.106;16.688;2022-12-22T18:32:35;197.30;;;69.22;;
69463;SDS011;56665;41.106;16.688;2022-12-22T18:35:40;152.27;;;50.72;;
69463;SDS011;56665;41.106;16.688;2022-12-22T18:38:46;106.53;;;38.70;;
69463;SDS011;56665;41.106;16.688;2022-12-22T18:41:51;101.63;;;37.03;;
69463;SDS011;56665;41.106;16.688;2022-12-22T18:44:56;104.03;;;39.35;;
69463;SDS011;56665;41.106;16.688;2022-12-22T18:48:00;106.10;;;45.53;;
69463;SDS011;56665;41.106;16.688;2022-12-22T18:51:23;107.43;;;46.53;;
69463;SDS011;56665;41.106;16.688;2022-12-22T18:54:29;106.95;;;42.17;;
69463;SDS011;56665;41.106;16.688;2022-12-22T18:57:39;110.40;;;42.07;;
69463;SDS011;56665;41.106;16.688;2022-12-22T19:00:45;109.32;;;42.25;;
69463;SDS011;56665;41.106;16.688;2022-12-22T19:03:50;117.82;;;43.25;;
69463;SDS011;56665;41.106;16.688;2022-12-22T19:06:57;107.47;;;40.97;;
69463;SDS011;56665;41.106;16.688;2022-12-22T19:10:01;107.63;;;40.13;;
69463;SDS011;56665;41.106;16.688;2022-12-22T19:13:09;97.00;;;39.63;;
69463;SDS011;56665;41.106;16.688;2022-12-22T19:16:23;89.63;;;36.63;;
69463;SDS011;56665;41.106;16.688;2022-12-22T19:19:29;79.82;;;32.03;;
69463;SDS011;56665;41.106;16.688;2022-12-22T19:22:33;64.95;;;28.17;;
69463;SDS011;56665;41.106;16.688;2022-12-22T19:25:37;52.30;;;22.73;;
69463;SDS011;56665;41.106;16.688;2022-12-22T19:28:41;39.70;;;18.92;;
69463;SDS011;56665;41.106;16.688;2022-12-22T19:31:46;30.35;;;15.23;;
69463;SDS011;56665;41.106;16.688;2022-12-22T19:34:50;26.55;;;13.57;;
69463;SDS011;56665;41.106;16.688;2022-12-22T19:37:58;26.83;;;14.05;;
69463;SDS011;56665;41.106;16.688;2022-12-22T19:41:10;27.05;;;13.57;;
69463;SDS011;56665;41.106;16.688;2022-12-22T19:44:27;25.52;;;13.10;;
69463;SDS011;56665;41.106;16.688;2022-12-22T19:47:32;25.95;;;12.90;;
69463;SDS011;56665;41.106;16.688;2022-12-22T19:50:38;30.77;;;14.43;;
69463;SDS011;56665;41.106;16.688;2022-12-22T19:53:45;31.10;;;15.27;;